Newington, New Hampshire
Current Conditions -  °F | °C
As of 4:51 AM on Friday 28 Nov 2014 (Local Time) from KDAW Reporting Station
Light Snow Light Snow  
Wind Chill: 19°   Ceiling: 4100
Heat Index: 26°   Visibility: 4mi
Dew Point: 21°   Wind: 6mph
Humidity: 81%   Direction: 330°NNW
Pressure: 30"   Gusts: NA
Location:  43.2364°N, 70.8206°W
Report Text: KDAW 280951Z AUTO 33005KT 4SM -SN OVC041 M03/M06 A3000 RMK AO2 SLP162 P0000 T10331061
Loading
Personal Weather Stations






























Interactive Weather Map New forecast layout! Learn more

10-Day Weather Forecast

Advertisements
Track Severe Weather on mobile